Weather at TSD Communications Department Heliport

Public forecast

Using degrees Celsius for public forecast. Weather courtesy of forecast.io.

Closest aviation weather report (METAR) to TSD Communications Department Heliport

Closest report is Ninoy Aquino International Airport, 4.5 nm (8.3 km) SSW. Retrieved 2020/09/27 14:00 UTC (53 minutes ago):

RPLL 271400Z 22004KT 9999 FEW023CB SCT025 BKN100 29/24 Q1011 NOSIG RMK A2985 CB NW

Closest aviation forecast (TAF) to TSD Communications Department Heliport

Closest forecast is Ninoy Aquino International Airport, 4.5 nm (8.3 km) SSW. Retrieved 2020/09/27 12:32 UTC (2 hours ago):

TAF RPLL 271100Z 2712/2818 23007KT 9999 FEW025 BKN250 TX34/2806Z TN26/2721Z TEMPO 2712/2718 VRB04KT SCT025 SCT100 TEMPO 2718/2724 08002KT FEW025 SCT100